Red Elm, South Dakota
Current Conditions -  °F | °C
As of 8:52 PM on Sunday 23 Nov 2014 (Local Time) from KMBG Reporting Station
Overcast Overcast  
Wind Chill:   Ceiling: 2400
Heat Index: 24°   Visibility: 10mi
Dew Point: 16°   Wind: 25mph
Humidity: 71%   Direction: 330°NNW
Pressure: 29.66"   Gusts: 35mph
Location:  45.0029°N, 101.639°W
Report Text: KMBG 240352Z AUTO 33022G30KT 10SM OVC024 M04/M09 A2966 RMK AO2 PK WND 33030/0346 SLP060 T10441089
Loading
Personal Weather Stations






























Interactive Weather Map New forecast layout! Learn more

10-Day Weather Forecast

Advertisements
Track Severe Weather on mobile